createdAt,value
2023-06-17T00:00:44.144Z,18.50
2023-06-17T00:04:07.989Z,18.50
2023-06-17T00:07:31.963Z,18.50
2023-06-17T00:10:55.698Z,18.30
2023-06-17T00:14:21.732Z,18.20
2023-06-17T00:17:47.434Z,18.10
2023-06-17T00:21:11.342Z,18.00
2023-06-17T00:24:35.140Z,17.90
2023-06-17T00:27:58.849Z,17.90
2023-06-17T00:31:22.505Z,17.80
2023-06-17T00:34:47.714Z,17.80
2023-06-17T00:38:11.289Z,17.80
2023-06-17T00:41:35.009Z,17.80
2023-06-17T00:44:58.548Z,17.80
2023-06-17T00:48:22.599Z,17.80
2023-06-17T00:52:00.118Z,17.80
2023-06-17T00:55:33.467Z,17.70
2023-06-17T00:58:58.387Z,17.70
2023-06-17T01:02:26.612Z,17.60
2023-06-17T01:05:52.584Z,17.60
2023-06-17T01:09:22.183Z,17.60
2023-06-17T01:12:50.080Z,17.60
2023-06-17T01:16:13.882Z,17.60
2023-06-17T01:19:37.607Z,17.50
2023-06-17T01:23:02.821Z,17.50
2023-06-17T01:26:29.398Z,17.40
2023-06-17T01:29:53.516Z,17.40
2023-06-17T01:33:17.711Z,17.30
2023-06-17T01:36:42.077Z,17.30
2023-06-17T01:40:09.870Z,17.30
2023-06-17T01:43:37.311Z,17.30
2023-06-17T01:47:01.362Z,17.30
2023-06-17T01:50:25.131Z,17.30
2023-06-17T01:53:48.882Z,17.30
2023-06-17T01:57:12.786Z,17.20
2023-06-17T02:00:37.804Z,17.10
2023-06-17T02:04:01.487Z,17.10
2023-06-17T02:07:27.310Z,17.00
2023-06-17T02:10:51.167Z,17.00
2023-06-17T02:14:14.937Z,16.90
2023-06-17T02:17:39.917Z,16.80
2023-06-17T02:21:04.662Z,16.80
2023-06-17T02:24:28.772Z,16.80
2023-06-17T02:27:52.617Z,16.80
2023-06-17T02:31:19.221Z,16.70
2023-06-17T02:34:44.882Z,16.60
2023-06-17T02:38:08.625Z,16.60
2023-06-17T02:41:32.706Z,16.50
2023-06-17T02:44:56.392Z,16.40
2023-06-17T02:48:20.028Z,16.40
2023-06-17T02:51:45.168Z,16.40
2023-06-17T02:55:09.441Z,16.30
2023-06-17T02:58:33.374Z,16.30
2023-06-17T03:01:57.274Z,16.30
2023-06-17T03:05:20.964Z,16.20
2023-06-17T03:08:46.020Z,16.10
2023-06-17T03:12:10.653Z,16.00
2023-06-17T03:15:34.982Z,16.00
2023-06-17T03:19:00.078Z,16.00
2023-06-17T03:22:24.818Z,15.90
2023-06-17T03:25:50.939Z,15.90
2023-06-17T03:29:14.718Z,16.00
2023-06-17T03:32:38.526Z,16.00
2023-06-17T03:36:02.177Z,16.00
2023-06-17T03:39:25.998Z,16.00
2023-06-17T03:42:52.906Z,16.00
2023-06-17T03:46:16.548Z,16.00
2023-06-17T03:49:40.771Z,16.00
2023-06-17T03:53:06.151Z,16.00
2023-06-17T03:56:29.742Z,16.10
2023-06-17T03:59:55.655Z,16.10
2023-06-17T04:03:20.722Z,16.10
2023-06-17T04:06:44.585Z,16.10
2023-06-17T04:10:10.030Z,16.10
2023-06-17T04:13:33.671Z,16.00
2023-06-17T04:17:00.242Z,16.00
2023-06-17T04:20:27.018Z,16.00
2023-06-17T04:23:51.224Z,16.10
2023-06-17T04:27:15.447Z,16.20
2023-06-17T04:30:40.839Z,16.20
2023-06-17T04:34:06.414Z,16.30
2023-06-17T04:37:30.105Z,16.30
2023-06-17T04:40:54.174Z,16.40
2023-06-17T04:44:19.518Z,16.40
2023-06-17T04:47:43.268Z,16.40
2023-06-17T04:51:08.353Z,16.40
2023-06-17T04:54:32.136Z,16.50
2023-06-17T04:57:55.964Z,16.60
2023-06-17T05:01:31.671Z,16.60
2023-06-17T05:04:56.224Z,16.80
2023-06-17T05:08:21.462Z,16.90
2023-06-17T05:11:46.117Z,17.50
2023-06-17T05:15:11.073Z,18.30
2023-06-17T05:18:34.830Z,19.20
2023-06-17T05:21:59.784Z,19.90
2023-06-17T05:25:25.826Z,20.40
2023-06-17T05:28:49.433Z,20.90
2023-06-17T05:32:13.712Z,21.40
2023-06-17T05:35:37.481Z,22.00
2023-06-17T05:39:01.741Z,23.10
2023-06-17T05:42:26.804Z,23.50
2023-06-17T05:45:50.889Z,23.20
2023-06-17T05:49:15.783Z,23.70
2023-06-17T05:52:40.046Z,24.00
2023-06-17T05:56:03.612Z,24.20
2023-06-17T05:59:30.907Z,24.70
2023-06-17T06:02:55.365Z,25.40
2023-06-17T06:06:19.922Z,25.60
2023-06-17T06:09:43.516Z,26.10
2023-06-17T06:13:07.234Z,26.40
2023-06-17T06:16:32.492Z,26.60
2023-06-17T06:19:56.230Z,27.10
2023-06-17T06:23:19.924Z,27.20
2023-06-17T06:26:43.830Z,26.80
2023-06-17T06:30:11.295Z,26.90
2023-06-17T06:33:40.737Z,27.40
2023-06-17T06:37:05.681Z,27.80
2023-06-17T06:40:29.443Z,27.70
2023-06-17T06:43:53.112Z,27.70
2023-06-17T06:47:16.881Z,27.90
2023-06-17T06:50:41.812Z,28.70
2023-06-17T06:54:06.981Z,28.40
2023-06-17T06:57:31.364Z,28.00
2023-06-17T07:00:55.100Z,28.10
2023-06-17T07:04:21.536Z,28.30
2023-06-17T07:07:50.486Z,28.80
2023-06-17T07:11:14.481Z,28.90
2023-06-17T07:14:38.239Z,28.70
2023-06-17T07:18:03.143Z,28.60
2023-06-17T07:21:26.845Z,28.70
2023-06-17T07:24:51.920Z,29.10
2023-06-17T07:28:15.855Z,29.70
2023-06-17T07:31:39.944Z,29.80
2023-06-17T07:35:04.066Z,30.00
2023-06-17T07:38:28.019Z,30.30
2023-06-17T07:41:53.202Z,30.50
2023-06-17T07:45:16.982Z,30.40
2023-06-17T07:48:40.617Z,30.60
2023-06-17T07:52:04.678Z,31.20
2023-06-17T07:55:30.139Z,31.30
2023-06-17T07:58:55.451Z,31.50
2023-06-17T08:02:19.854Z,31.50
2023-06-17T08:05:44.345Z,32.00
2023-06-17T08:09:09.966Z,32.30
2023-06-17T08:12:34.696Z,32.20
2023-06-17T08:15:59.902Z,32.80
2023-06-17T08:19:24.616Z,32.90
2023-06-17T08:22:48.494Z,33.30
2023-06-17T08:26:15.519Z,33.40
2023-06-17T08:29:39.506Z,33.20
2023-06-17T08:33:05.056Z,33.70
2023-06-17T08:36:30.608Z,33.80
2023-06-17T08:39:54.498Z,34.90
2023-06-17T08:43:19.783Z,34.10
2023-06-17T08:46:45.878Z,33.80
2023-06-17T08:50:23.731Z,34.20
2023-06-17T08:53:50.153Z,34.60
2023-06-17T08:57:15.527Z,35.10
2023-06-17T09:00:39.629Z,35.00
2023-06-17T09:04:04.074Z,35.00
2023-06-17T09:07:30.084Z,35.10
2023-06-17T09:10:54.581Z,35.10
2023-06-17T09:14:19.435Z,34.20
2023-06-17T09:17:46.000Z,34.40
2023-06-17T09:21:10.711Z,35.10
2023-06-17T09:24:37.433Z,36.10
2023-06-17T09:31:30.132Z,35.50
2023-06-17T09:34:54.617Z,35.80
2023-06-17T09:38:19.449Z,35.80
2023-06-17T09:41:46.610Z,36.00
2023-06-17T09:45:12.505Z,35.30
2023-06-17T09:48:39.917Z,35.30
2023-06-17T09:52:06.418Z,35.20
2023-06-17T09:55:31.444Z,36.20
2023-06-17T09:58:57.843Z,36.90
2023-06-17T10:02:21.994Z,37.60
2023-06-17T10:05:47.052Z,37.80
2023-06-17T10:09:11.904Z,37.70
2023-06-17T10:12:37.294Z,37.30
2023-06-17T10:16:05.494Z,36.10
2023-06-17T10:19:33.887Z,36.00
2023-06-17T10:23:00.424Z,36.60
2023-06-17T10:26:24.968Z,36.20
2023-06-17T10:29:50.902Z,36.40
2023-06-17T10:33:16.133Z,36.80
2023-06-17T10:36:40.762Z,36.00
2023-06-17T10:40:26.992Z,35.20
2023-06-17T10:43:51.736Z,35.40
2023-06-17T10:47:22.839Z,35.50
2023-06-17T10:50:53.514Z,35.30
2023-06-17T10:54:27.445Z,35.40
2023-06-17T10:57:52.510Z,34.90
2023-06-17T11:01:17.104Z,34.00
2023-06-17T11:04:42.398Z,33.40
2023-06-17T11:08:08.220Z,32.50
2023-06-17T11:11:34.296Z,32.10
2023-06-17T11:15:01.337Z,31.20
2023-06-17T11:18:26.225Z,30.10
2023-06-17T11:21:52.320Z,29.70
2023-06-17T11:25:20.949Z,29.50
2023-06-17T11:28:52.701Z,29.10
2023-06-17T11:32:16.851Z,28.80
2023-06-17T11:35:40.923Z,28.30
2023-06-17T11:39:05.577Z,28.10
2023-06-17T11:42:31.559Z,27.90
2023-06-17T11:45:59.371Z,28.10
2023-06-17T11:49:26.444Z,28.00
2023-06-17T11:52:58.008Z,28.00
2023-06-17T11:56:23.017Z,28.10
2023-06-17T11:59:48.287Z,28.10
2023-06-17T12:06:37.322Z,28.10
2023-06-17T12:10:01.935Z,28.20
2023-06-17T12:13:25.878Z,27.70
2023-06-17T12:16:53.901Z,27.80
2023-06-17T12:20:18.979Z,27.60
2023-06-17T12:23:43.986Z,27.40
2023-06-17T12:27:10.564Z,27.60
2023-06-17T12:30:35.682Z,27.70
2023-06-17T12:34:01.181Z,27.30
2023-06-17T12:37:28.564Z,27.60
2023-06-17T12:40:52.866Z,27.60
2023-06-17T12:44:18.684Z,27.50
2023-06-17T12:47:43.091Z,27.60
2023-06-17T12:51:08.241Z,27.70
2023-06-17T12:54:31.860Z,27.60
2023-06-17T12:57:55.941Z,27.70
2023-06-17T13:01:19.933Z,27.50
2023-06-17T13:04:43.907Z,27.40
2023-06-17T13:08:09.253Z,27.50
2023-06-17T13:11:35.310Z,27.30
2023-06-17T13:14:58.917Z,27.30
2023-06-17T13:18:22.992Z,26.80
2023-06-17T13:21:47.446Z,27.10
2023-06-17T13:25:13.443Z,27.00
2023-06-17T13:28:39.579Z,26.90
2023-06-17T13:32:04.313Z,26.70
2023-06-17T13:35:27.894Z,27.00
2023-06-17T13:38:51.958Z,27.00
2023-06-17T13:42:19.734Z,27.30
2023-06-17T13:45:44.128Z,27.10
2023-06-17T13:49:07.974Z,27.20
2023-06-17T13:52:34.112Z,27.20
2023-06-17T13:56:00.542Z,27.10
2023-06-17T13:59:31.648Z,26.80
2023-06-17T14:02:57.947Z,26.90
2023-06-17T14:06:22.639Z,27.10
2023-06-17T14:09:49.209Z,27.40
2023-06-17T14:13:16.335Z,27.50
2023-06-17T14:16:43.791Z,27.10
2023-06-17T14:20:08.898Z,27.40
2023-06-17T14:23:35.979Z,27.30
2023-06-17T14:27:24.738Z,27.20
2023-06-17T14:30:49.942Z,27.20
2023-06-17T14:34:22.676Z,27.20
2023-06-17T14:37:49.141Z,27.40
2023-06-17T14:41:14.388Z,27.30
2023-06-17T14:44:40.587Z,26.90
2023-06-17T14:48:08.349Z,27.10
2023-06-17T14:51:41.893Z,27.20
2023-06-17T14:55:08.111Z,27.00
2023-06-17T14:58:34.111Z,26.90
2023-06-17T15:02:00.060Z,27.10
2023-06-17T15:05:24.822Z,27.30
2023-06-17T15:09:28.713Z,27.40
2023-06-17T15:12:56.525Z,27.60
2023-06-17T15:16:26.049Z,27.50
2023-06-17T15:19:59.006Z,27.50
2023-06-17T15:23:25.499Z,27.50
2023-06-17T15:26:58.463Z,27.50
2023-06-17T15:30:25.645Z,27.20
2023-06-17T15:33:53.247Z,27.30
2023-06-17T15:37:18.114Z,27.40
2023-06-17T15:40:42.391Z,27.60
2023-06-17T15:44:07.661Z,27.50
2023-06-17T15:47:32.370Z,27.40
2023-06-17T15:50:56.169Z,27.30
2023-06-17T15:54:26.880Z,27.40
2023-06-17T15:57:51.615Z,27.40
2023-06-17T16:01:20.475Z,27.50
2023-06-17T16:04:47.098Z,27.40
2023-06-17T16:08:13.559Z,27.20
2023-06-17T16:11:37.811Z,27.10
2023-06-17T16:15:03.874Z,27.30
2023-06-17T16:18:31.355Z,27.30
2023-06-17T16:22:00.055Z,27.40
2023-06-17T16:25:29.675Z,27.50
2023-06-17T16:28:59.361Z,27.60
2023-06-17T16:32:23.282Z,27.80
2023-06-17T16:35:53.268Z,27.80
2023-06-17T16:39:18.721Z,27.50
2023-06-17T16:42:43.189Z,27.30
2023-06-17T16:46:11.913Z,27.30
2023-06-17T16:49:38.998Z,27.20
2023-06-17T16:53:09.307Z,27.10
2023-06-17T16:56:35.435Z,27.10
2023-06-17T17:00:04.200Z,27.20
2023-06-17T17:03:30.399Z,27.30
2023-06-17T17:06:54.173Z,27.20
2023-06-17T17:10:27.008Z,27.20
2023-06-17T17:13:52.656Z,27.20
2023-06-17T17:17:17.393Z,26.90
2023-06-17T17:20:42.731Z,26.50
2023-06-17T17:24:09.985Z,26.40
2023-06-17T17:27:38.075Z,26.30
2023-06-17T17:31:01.720Z,26.40
2023-06-17T17:34:26.370Z,26.40
2023-06-17T17:37:52.924Z,26.40
2023-06-17T17:41:20.104Z,26.30
2023-06-17T17:44:45.690Z,26.40
2023-06-17T17:48:09.294Z,26.50
2023-06-17T17:51:40.812Z,26.30
2023-06-17T17:55:08.042Z,26.10
2023-06-17T17:58:37.445Z,26.20
2023-06-17T18:02:05.934Z,26.10
2023-06-17T18:05:34.123Z,26.10
2023-06-17T18:08:58.527Z,26.00
2023-06-17T18:12:23.389Z,25.90
2023-06-17T18:15:48.351Z,25.80
2023-06-17T18:19:19.430Z,25.70
2023-06-17T18:22:43.457Z,25.60
2023-06-17T18:26:09.804Z,25.60
2023-06-17T18:29:35.617Z,25.70
2023-06-17T18:33:03.023Z,25.70
2023-06-17T18:36:28.692Z,25.60
2023-06-17T18:39:54.851Z,25.60
2023-06-17T18:43:21.541Z,25.60
2023-06-17T18:46:45.686Z,25.60
2023-06-17T18:50:10.934Z,25.60
2023-06-17T18:53:39.209Z,25.50
2023-06-17T18:57:05.008Z,25.40
2023-06-17T19:00:31.962Z,25.30
2023-06-17T19:03:56.124Z,25.20
2023-06-17T19:07:20.516Z,25.10
2023-06-17T19:10:45.840Z,25.00
2023-06-17T19:14:12.024Z,24.90
2023-06-17T19:17:38.882Z,24.90
2023-06-17T19:21:02.599Z,24.90
2023-06-17T19:24:28.679Z,24.90
2023-06-17T19:27:56.218Z,24.80
2023-06-17T19:31:22.059Z,24.70
2023-06-17T19:34:48.320Z,24.70
2023-06-17T19:38:12.158Z,24.50
2023-06-17T19:41:36.100Z,24.50
2023-06-17T19:45:08.849Z,24.40
2023-06-17T19:48:38.606Z,24.40
2023-06-17T19:52:02.707Z,24.30
2023-06-17T19:55:26.457Z,24.30
2023-06-17T19:58:52.712Z,24.30
2023-06-17T20:02:29.793Z,24.30
2023-06-17T20:06:02.952Z,24.20
2023-06-17T20:09:31.870Z,24.10
2023-06-17T20:13:01.382Z,24.00
2023-06-17T20:16:34.441Z,23.90
2023-06-17T20:20:02.117Z,23.80
2023-06-17T20:23:28.330Z,23.80
2023-06-17T20:26:53.504Z,23.70
2023-06-17T20:30:17.627Z,23.60
2023-06-17T20:33:47.510Z,23.50
2023-06-17T20:37:15.115Z,23.40
2023-06-17T20:40:41.945Z,23.30
2023-06-17T20:44:06.939Z,23.20
2023-06-17T20:47:30.810Z,23.00
2023-06-17T20:50:56.798Z,23.00
2023-06-17T20:54:24.639Z,22.90
2023-06-17T20:57:52.913Z,22.80
2023-06-17T21:01:20.844Z,22.80
2023-06-17T21:04:44.917Z,22.70
2023-06-17T21:08:09.792Z,22.60
2023-06-17T21:11:39.694Z,22.50
2023-06-17T21:15:03.369Z,22.40
2023-06-17T21:18:30.135Z,22.30
2023-06-17T21:21:54.853Z,22.30
2023-06-17T21:25:20.837Z,22.20
2023-06-17T21:28:59.693Z,22.10
2023-06-17T21:32:23.659Z,22.10
2023-06-17T21:35:47.717Z,22.00
2023-06-17T21:39:18.978Z,21.90
2023-06-17T21:42:42.529Z,21.80
2023-06-17T21:46:08.088Z,21.80
2023-06-17T21:49:35.321Z,21.70
2023-06-17T21:53:00.001Z,21.70
2023-06-17T21:56:24.209Z,21.60
2023-06-17T21:59:50.250Z,21.50
2023-06-17T22:03:16.389Z,21.50
2023-06-17T22:06:43.218Z,21.50
2023-06-17T22:10:07.725Z,21.50
2023-06-17T22:13:39.095Z,21.40
2023-06-17T22:17:05.100Z,21.40
2023-06-17T22:20:35.984Z,21.20
2023-06-17T22:24:03.677Z,21.20
2023-06-17T22:27:29.878Z,21.10
2023-06-17T22:30:53.698Z,21.10
2023-06-17T22:34:20.043Z,21.00
2023-06-17T22:37:45.097Z,21.00
2023-06-17T22:41:11.038Z,21.00
2023-06-17T22:44:34.948Z,20.70
2023-06-17T22:48:01.124Z,20.60
2023-06-17T22:51:25.211Z,20.50
2023-06-17T22:54:54.706Z,20.50
2023-06-17T22:58:18.820Z,20.50
2023-06-17T23:01:42.743Z,20.50
2023-06-17T23:05:07.169Z,20.50
2023-06-17T23:08:31.988Z,20.40
2023-06-17T23:11:59.508Z,20.40
2023-06-17T23:15:23.074Z,20.40
2023-06-17T23:18:46.748Z,20.30
2023-06-17T23:22:11.448Z,20.20
2023-06-17T23:25:35.780Z,20.10
2023-06-17T23:29:01.174Z,19.90
2023-06-17T23:32:26.108Z,19.90
2023-06-17T23:35:58.129Z,19.90
2023-06-17T23:39:21.896Z,19.90
2023-06-17T23:42:45.796Z,19.80
2023-06-17T23:46:15.340Z,19.70
2023-06-17T23:49:42.284Z,19.60
2023-06-17T23:53:06.061Z,19.50
2023-06-17T23:56:30.715Z,19.50
2023-06-17T23:59:58.046Z,19.50
